Time;durP1;ratioP1;P1;durP2;ratioP2;P2;SDS_P1;SDS_P2;PMS_P1;PMS_P2;Temp;Humidity;BMP_temperature;BMP_pressure;BME280_temperature;BME280_humidity;BME280_pressure;Samples;Min_cycle;Max_cycle;Signal;HPM_P1;HPM_P2
2020/12/13 00:00:09;;;;;;;29.60;17.17;;;;;;;5.81;86.79;93971.66;5105234;28;20057;-77
2020/12/13 00:02:37;;;;;;;27.08;16.75;;;;;;;5.94;86.42;93976.63;5103797;28;20039;-72
2020/12/13 00:05:04;;;;;;;26.33;15.55;;;;;;;5.84;86.27;93959.09;5105355;28;20054;-72
2020/12/13 00:07:30;;;;;;;30.85;17.38;;;;;;;5.86;86.77;93962.22;5103342;28;20045;-72
2020/12/13 00:09:56;;;;;;;24.00;15.57;;;;;;;6.24;86.00;93973.97;5105849;28;20497;-72
2020/12/13 00:12:22;;;;;;;28.15;15.35;;;;;;;6.60;84.25;93977.34;5102947;28;21131;-73
2020/12/13 00:14:49;;;;;;;24.67;13.73;;;;;;;6.62;82.95;93975.31;5105669;28;20071;-73
2020/12/13 00:17:18;;;;;;;36.78;19.13;;;;;;;6.69;82.13;93981.16;5103935;28;20048;-73
2020/12/13 00:19:45;;;;;;;52.20;21.67;;;;;;;6.64;81.95;93988.03;5105700;28;20561;-73
2020/12/13 00:22:12;;;;;;;61.63;23.55;;;;;;;6.50;82.74;93977.16;5104839;28;20035;-73
2020/12/13 00:24:39;;;;;;;44.35;18.80;;;;;;;6.44;82.83;93978.03;5104717;28;20040;-73
2020/12/13 00:27:05;;;;;;;35.72;17.63;;;;;;;6.53;83.40;93981.84;5104484;28;20489;-72
2020/12/13 00:29:31;;;;;;;46.95;20.17;;;;;;;6.76;82.76;93980.28;5105157;28;20032;-73
2020/12/13 00:31:57;;;;;;;47.10;18.17;;;;;;;6.66;82.02;93971.28;5104438;28;20044;-73
2020/12/13 00:34:24;;;;;;;45.83;20.25;;;;;;;6.61;82.01;93978.94;5108233;28;20118;-73
2020/12/13 00:36:51;;;;;;;61.40;26.20;;;;;;;6.42;82.37;93980.06;5109981;28;20421;-69
2020/12/13 00:39:18;;;;;;;51.35;24.83;;;;;;;6.45;82.84;93969.28;5108122;28;20035;-69
2020/12/13 00:41:52;;;;;;;54.78;26.33;;;;;;;6.67;82.08;93978.03;5107657;28;20035;-69
2020/12/13 00:44:19;;;;;;;42.45;22.50;;;;;;;6.77;81.09;93964.53;5109634;27;20036;-69
2020/12/13 00:46:46;;;;;;;66.10;28.00;;;;;;;6.83;81.11;93968.78;5108371;28;20471;-69
2020/12/13 00:49:14;;;;;;;55.08;28.05;;;;;;;7.05;80.58;93974.13;5109533;28;20040;-69
2020/12/13 00:51:41;;;;;;;46.30;23.38;;;;;;;6.88;80.39;93965.50;5108147;28;20042;-69
2020/12/13 00:54:08;;;;;;;45.13;21.10;;;;;;;6.83;80.32;93975.75;5109488;28;20082;-69
2020/12/13 00:56:34;;;;;;;29.15;15.70;;;;;;;6.79;79.59;93965.06;5108170;28;20084;-69
2020/12/13 00:59:02;;;;;;;37.35;21.92;;;;;;;6.63;79.38;93965.78;5107862;28;20042;-69
2020/12/13 01:01:28;;;;;;;23.67;14.27;;;;;;;6.65;79.56;93969.69;5107570;28;20047;-69
2020/12/13 01:03:55;;;;;;;26.02;16.52;;;;;;;6.60;79.26;93967.00;5108458;28;20047;-70
2020/12/13 01:06:25;;;;;;;49.13;30.88;;;;;;;6.68;79.04;93974.44;5108732;28;20040;-69
2020/12/13 01:08:52;;;;;;;52.30;31.85;;;;;;;6.78;78.65;93973.06;5107890;28;20047;-69
2020/12/13 01:11:29;;;;;;;39.90;27.73;;;;;;;6.74;78.10;93961.59;5107704;28;20417;-71
2020/12/13 01:13:56;;;;;;;23.40;15.43;;;;;;;6.89;77.49;93980.78;5108131;28;20051;-70
2020/12/13 01:16:23;;;;;;;45.97;26.50;;;;;;;6.93;77.47;93986.28;5107777;28;20500;-68
2020/12/13 01:18:51;;;;;;;39.80;22.55;;;;;;;6.88;77.08;93970.69;5109170;28;20073;-69
2020/12/13 01:21:20;;;;;;;43.60;23.75;;;;;;;5.89;81.03;93987.63;5107920;28;20043;-70
2020/12/13 01:23:47;;;;;;;49.13;23.27;;;;;;;5.57;83.57;93994.06;5106750;28;20436;-70
2020/12/13 01:26:15;;;;;;;45.47;23.63;;;;;;;5.62;83.79;93991.59;5107252;28;20048;-71
2020/12/13 01:28:42;;;;;;;59.10;26.85;;;;;;;5.19;85.38;93982.25;5107685;28;20058;-69
2020/12/13 01:31:12;;;;;;;59.63;29.50;;;;;;;5.20;85.39;93988.97;5106228;28;20047;-69
2020/12/13 01:33:38;;;;;;;63.55;26.10;;;;;;;5.10;86.10;93989.50;5106916;28;20043;-69
2020/12/13 01:36:09;;;;;;;59.50;27.52;;;;;;;4.70;88.93;93995.91;5107655;28;20042;-69
2020/12/13 01:38:35;;;;;;;57.80;27.70;;;;;;;4.58;90.55;93977.75;5107315;28;20035;-69
2020/12/13 01:41:01;;;;;;;38.97;21.08;;;;;;;4.57;91.33;93990.84;5105408;28;20052;-69
2020/12/13 01:43:28;;;;;;;30.00;17.50;;;;;;;4.53;91.68;93990.50;5104104;28;20118;-69
2020/12/13 01:45:54;;;;;;;30.33;17.33;;;;;;;4.46;92.71;93989.00;5105230;28;20036;-69
2020/12/13 01:48:21;;;;;;;55.80;22.20;;;;;;;4.26;92.85;93989.97;5106673;28;20423;-70
2020/12/13 01:53:26;;;;;;;87.88;27.60;;;;;;;4.26;92.67;94000.28;5107231;28;20040;-70
2020/12/13 01:55:57;;;;;;;61.35;21.50;;;;;;;4.15;92.97;93998.38;5107473;28;20047;-70
2020/12/13 01:58:31;;;;;;;46.10;18.90;;;;;;;4.39;92.57;94005.31;5103544;28;20132;-71
2020/12/13 02:01:03;;;;;;;50.97;18.25;;;;;;;4.52;91.77;93999.25;5107534;28;20035;-68
2020/12/13 02:03:53;;;;;;;26.15;13.90;;;;;;;4.50;91.39;94003.03;5105142;28;20505;-68
2020/12/13 02:06:24;;;;;;;17.40;9.65;;;;;;;4.14;92.01;93994.22;5102589;28;20050;-69
2020/12/13 02:08:51;;;;;;;14.82;8.98;;;;;;;4.39;91.93;93999.34;5106916;28;20039;-69
2020/12/13 02:11:19;;;;;;;12.73;8.70;;;;;;;4.40;92.13;93994.00;5105381;28;20055;-69
2020/12/13 02:13:48;;;;;;;10.38;6.75;;;;;;;4.37;91.70;93985.91;5105481;28;20089;-69
2020/12/13 02:16:15;;;;;;;10.45;7.53;;;;;;;4.27;91.34;93981.22;5107424;28;20054;-69
2020/12/13 02:18:42;;;;;;;15.00;8.93;;;;;;;4.11;91.80;93986.94;5107542;28;20101;-69
2020/12/13 02:21:13;;;;;;;16.83;9.73;;;;;;;4.16;91.92;93979.31;5107872;28;20056;-68
2020/12/13 02:23:41;;;;;;;12.70;8.93;;;;;;;4.49;91.12;93994.50;5106451;28;20051;-69
2020/12/13 02:26:15;;;;;;;14.32;8.88;;;;;;;4.77;90.08;93994.03;5107465;28;20036;-69
2020/12/13 02:28:42;;;;;;;12.90;8.02;;;;;;;5.02;88.43;93998.31;5088353;28;20039;-69
2020/12/13 02:31:10;;;;;;;12.27;7.28;;;;;;;5.05;86.97;93982.41;5107538;28;20077;-69
2020/12/13 02:33:36;;;;;;;12.50;7.90;;;;;;;5.26;86.29;93998.44;5107166;28;20031;-68
2020/12/13 02:36:04;;;;;;;12.15;8.18;;;;;;;5.50;85.65;94002.69;5106349;28;20958;-69
2020/12/13 02:38:31;;;;;;;14.80;7.97;;;;;;;5.77;84.47;94002.31;5105823;28;20045;-68
2020/12/13 02:40:58;;;;;;;16.80;9.85;;;;;;;5.99;82.47;94007.78;5106843;27;20047;-69
2020/12/13 02:43:25;;;;;;;16.00;9.85;;;;;;;6.05;81.22;94006.09;5104917;28;20050;-70
2020/12/13 02:45:52;;;;;;;16.20;10.93;;;;;;;6.00;80.92;94009.38;5107798;28;20047;-69
2020/12/13 02:48:18;;;;;;;14.60;9.48;;;;;;;6.05;80.92;94006.09;5106975;27;20063;-69
2020/12/13 02:50:45;;;;;;;15.65;9.95;;;;;;;6.11;80.35;94000.06;5106166;28;20122;-69
2020/12/13 02:53:12;;;;;;;16.45;10.68;;;;;;;6.06;80.74;94012.88;5106116;28;20059;-69
2020/12/13 02:55:38;;;;;;;13.48;9.18;;;;;;;6.01;81.59;93999.81;5104639;28;20042;-69
2020/12/13 02:58:04;;;;;;;21.35;12.10;;;;;;;6.20;80.56;94010.88;5106793;28;20427;-69
2020/12/13 03:00:30;;;;;;;30.70;16.00;;;;;;;5.99;80.30;94014.75;5104467;28;20044;-69
2020/12/13 03:02:57;;;;;;;25.73;15.95;;;;;;;5.48;81.76;94007.28;5107232;28;20408;-69
2020/12/13 03:05:23;;;;;;;28.38;15.13;;;;;;;5.48;82.75;94022.78;5106610;28;20044;-69
2020/12/13 03:07:50;;;;;;;27.83;16.17;;;;;;;5.23;83.80;94019.53;5107308;28;20452;-69
2020/12/13 03:10:17;;;;;;;26.63;15.35;;;;;;;5.17;84.08;94011.66;5106192;28;20036;-69
2020/12/13 03:12:43;;;;;;;27.05;14.65;;;;;;;5.26;84.03;94026.84;5105446;28;20043;-69
2020/12/13 03:15:09;;;;;;;30.15;17.13;;;;;;;5.39;83.64;94023.31;5106860;28;20046;-69
2020/12/13 03:17:36;;;;;;;22.92;12.85;;;;;;;5.50;83.10;94020.75;5106273;28;20049;-69
2020/12/13 03:20:03;;;;;;;32.08;15.88;;;;;;;5.64;81.63;94030.94;5107036;28;20038;-69
2020/12/13 03:22:29;;;;;;;26.55;13.35;;;;;;;5.72;80.74;94028.03;5105037;28;20047;-69
2020/12/13 03:24:56;;;;;;;22.55;12.88;;;;;;;5.74;80.00;94020.84;5106372;28;20042;-69
2020/12/13 03:27:24;;;;;;;26.83;15.05;;;;;;;5.58;80.33;94026.63;5106276;28;20401;-69
2020/12/13 03:29:52;;;;;;;23.80;14.02;;;;;;;5.36;81.69;94030.47;5106724;28;20048;-69
2020/12/13 03:32:19;;;;;;;26.48;15.02;;;;;;;5.30;82.68;94021.03;5105791;28;20040;-69
2020/12/13 03:34:46;;;;;;;24.58;13.77;;;;;;;5.44;82.06;94026.81;5106871;28;20043;-70
2020/12/13 03:37:13;;;;;;;32.65;15.25;;;;;;;5.50;82.04;94020.75;5105338;28;20066;-70
2020/12/13 03:39:39;;;;;;;27.77;14.30;;;;;;;5.58;81.40;94011.13;5102731;28;20040;-69
2020/12/13 03:42:05;;;;;;;26.15;13.43;;;;;;;5.78;80.04;94022.00;5104195;28;20141;-70
2020/12/13 03:44:32;;;;;;;28.90;14.25;;;;;;;5.33;81.20;94024.94;5105555;28;20390;-70
2020/12/13 03:46:58;;;;;;;31.02;16.52;;;;;;;4.58;85.76;94023.41;5106588;28;20039;-69
2020/12/13 03:49:25;;;;;;;40.55;21.08;;;;;;;4.56;87.20;94020.25;5105662;28;20443;-68
2020/12/13 03:51:51;;;;;;;36.58;20.40;;;;;;;4.83;86.14;94014.81;5106483;28;20505;-70
2020/12/13 03:54:17;;;;;;;49.60;22.23;;;;;;;4.68;86.18;94018.53;5105098;28;20054;-70
2020/12/13 03:56:44;;;;;;;108.13;39.50;;;;;;;4.54;87.45;94017.09;5106060;28;20118;-69
2020/12/13 03:59:10;;;;;;;57.25;25.20;;;;;;;4.55;87.78;94011.69;5102678;28;20042;-68
2020/12/13 04:01:37;;;;;;;46.10;21.45;;;;;;;4.74;87.33;94017.69;5105714;28;20114;-67
2020/12/13 04:04:03;;;;;;;62.35;28.17;;;;;;;4.75;86.21;93993.47;5106392;28;20122;-68
2020/12/13 04:06:29;;;;;;;43.75;21.95;;;;;;;4.54;87.38;93996.47;5103949;28;20055;-68
2020/12/13 04:08:56;;;;;;;58.58;29.98;;;;;;;4.18;89.42;94016.00;5105160;28;20036;-68
2020/12/13 04:11:22;;;;;;;46.13;24.27;;;;;;;3.91;90.55;94005.91;5103583;28;20051;-68
2020/12/13 04:13:48;;;;;;;29.00;16.92;;;;;;;4.23;90.52;94011.00;5105165;28;20176;-68
2020/12/13 04:16:15;;;;;;;37.97;20.65;;;;;;;4.36;88.83;94000.59;5106240;28;20062;-68
2020/12/13 04:18:41;;;;;;;46.28;22.88;;;;;;;4.43;88.01;94002.31;5105671;28;20441;-68
2020/12/13 04:21:08;;;;;;;31.45;18.48;;;;;;;4.48;87.35;94003.22;5106053;28;20038;-70
2020/12/13 04:23:34;;;;;;;28.55;16.45;;;;;;;4.61;86.47;94020.41;5104827;28;20043;-68
2020/12/13 04:26:00;;;;;;;23.23;14.63;;;;;;;4.57;85.67;94016.66;5105417;28;20046;-67
2020/12/13 04:28:26;;;;;;;22.35;14.18;;;;;;;4.60;84.92;94026.53;5104118;28;20036;-67
2020/12/13 04:30:53;;;;;;;26.60;14.68;;;;;;;4.24;85.97;94028.03;5104643;28;20059;-67
2020/12/13 04:33:19;;;;;;;35.75;19.40;;;;;;;3.83;88.81;94029.34;5103935;28;20425;-68
2020/12/13 04:35:45;;;;;;;29.48;18.63;;;;;;;3.87;89.25;94043.41;5104650;28;20054;-67
2020/12/13 04:38:12;;;;;;;45.88;26.35;;;;;;;3.94;88.14;94049.28;5102993;28;20043;-68
2020/12/13 04:40:38;;;;;;;43.53;21.05;;;;;;;3.86;87.61;94051.31;5103856;28;20652;-70
2020/12/13 04:43:06;;;;;;;28.13;18.73;;;;;;;3.64;88.58;94055.00;5103756;28;20040;-67
2020/12/13 04:45:33;;;;;;;28.42;17.08;;;;;;;3.53;89.26;94054.84;5104941;28;20036;-67
2020/12/13 04:48:06;;;;;;;43.92;24.55;;;;;;;3.58;89.70;94066.16;5105743;28;20489;-67
2020/12/13 04:50:36;;;;;;;76.37;31.40;;;;;;;3.70;90.02;94062.91;5104157;28;20569;-67
2020/12/13 04:53:07;;;;;;;49.28;23.55;;;;;;;3.92;89.69;94061.56;5105413;28;20055;-67
2020/12/13 04:55:43;;;;;;;25.65;15.93;;;;;;;3.98;87.89;94055.59;5102988;28;20066;-67
2020/12/13 04:58:13;;;;;;;39.92;25.20;;;;;;;4.00;86.55;94069.06;5105589;28;20480;-67
2020/12/13 05:00:44;;;;;;;29.27;18.65;;;;;;;4.14;86.10;94068.97;5102969;28;20043;-67
2020/12/13 05:03:15;;;;;;;28.20;16.63;;;;;;;4.23;84.87;94065.13;5104445;28;20114;-67
2020/12/13 05:05:42;;;;;;;29.13;17.25;;;;;;;4.23;82.84;94065.13;5105153;28;20043;-68
2020/12/13 05:08:08;;;;;;;28.65;17.40;;;;;;;3.93;83.57;94081.19;5104097;28;20044;-68
2020/12/13 05:10:38;;;;;;;35.65;20.10;;;;;;;3.43;85.68;94083.63;5103453;28;20044;-67
2020/12/13 05:13:07;;;;;;;46.47;28.25;;;;;;;3.52;85.67;94076.47;5103296;28;20039;-67
2020/12/13 05:15:35;;;;;;;40.60;27.80;;;;;;;3.52;85.49;94092.69;5104997;28;20039;-67
2020/12/13 05:18:02;;;;;;;35.40;23.33;;;;;;;3.48;85.93;94076.09;5105530;28;20075;-67
2020/12/13 05:20:29;;;;;;;41.00;28.05;;;;;;;3.69;85.11;94081.91;5104076;28;20031;-67
2020/12/13 05:22:57;;;;;;;19.38;12.93;;;;;;;3.66;83.34;94072.06;5106874;28;20042;-67
2020/12/13 05:25:40;;;;;;;17.15;10.57;;;;;;;3.43;83.92;94068.19;5107506;28;20107;-70
2020/12/13 05:28:08;;;;;;;17.23;11.10;;;;;;;3.43;83.67;94073.34;5108823;28;20415;-67
2020/12/13 05:30:43;;;;;;;18.10;11.40;;;;;;;3.51;82.93;94073.09;5108292;28;20118;-68
2020/12/13 05:33:48;;;;;;;18.27;10.50;;;;;;;3.59;82.38;94072.84;5108051;28;20504;-67
2020/12/13 05:36:07;;;;;;;17.25;10.20;;;;;;;3.52;83.17;94066.94;5108564;28;20127;-67
2020/12/13 05:38:36;;;;;;;17.80;11.05;;;;;;;3.49;82.94;94062.19;5106391;28;20046;-68
2020/12/13 05:41:04;;;;;;;17.00;11.10;;;;;;;3.46;83.04;94072.94;5108698;28;20036;-68
2020/12/13 05:43:36;;;;;;;19.45;11.48;;;;;;;3.38;83.72;94075.72;5105812;28;20050;-67
2020/12/13 05:51:19;;;;;;;17.65;11.25;;;;;;;3.21;83.74;94081.34;5108344;28;20039;-68
2020/12/13 05:53:46;;;;;;;32.45;20.60;;;;;;;2.75;85.31;94077.09;5106736;28;20130;-68
2020/12/13 05:56:23;;;;;;;46.83;28.20;;;;;;;2.67;86.15;94085.03;5108073;28;20048;-69
2020/12/13 05:58:53;;;;;;;25.52;16.58;;;;;;;2.69;85.93;94098.47;5107779;28;20126;-68
2020/12/13 06:01:24;;;;;;;25.08;14.48;;;;;;;2.64;85.55;94100.84;5107013;27;20050;-69
2020/12/13 06:03:53;;;;;;;25.52;16.63;;;;;;;2.62;85.70;94107.97;5106474;28;20043;-69
2020/12/13 06:06:24;;;;;;;40.22;25.05;;;;;;;2.47;86.81;94093.53;5107765;28;20043;-69
2020/12/13 06:09:12;;;;;;;59.20;37.87;;;;;;;2.55;87.25;94107.19;5107696;28;20044;-70
2020/12/13 06:11:49;;;;;;;29.02;16.65;;;;;;;2.46;87.05;94099.66;5108930;28;20448;-69
2020/12/13 06:14:20;;;;;;;24.23;12.20;;;;;;;2.46;87.38;94115.06;5109561;28;20031;-69
2020/12/13 06:16:49;;;;;;;20.55;11.55;;;;;;;2.38;88.30;94115.28;5109055;28;20035;-69
2020/12/13 06:19:23;;;;;;;25.60;13.23;;;;;;;2.42;88.53;94126.75;5109440;28;20101;-69
2020/12/13 06:21:49;;;;;;;22.77;13.98;;;;;;;2.42;89.00;94124.19;5109516;28;20043;-69
2020/12/13 06:24:16;;;;;;;24.95;14.10;;;;;;;2.39;89.54;94124.56;5109268;28;20120;-69
2020/12/13 06:26:44;;;;;;;27.70;15.45;;;;;;;2.29;90.29;94113.91;5109059;28;20039;-69
2020/12/13 06:29:10;;;;;;;56.08;25.80;;;;;;;2.35;90.96;94123.38;5107842;28;20040;-69
2020/12/13 06:31:38;;;;;;;38.42;20.17;;;;;;;2.39;91.18;94128.94;5108698;28;20495;-68
2020/12/13 06:34:06;;;;;;;37.55;20.05;;;;;;;2.35;91.59;94113.09;5107733;28;20048;-68
2020/12/13 06:36:34;;;;;;;35.17;17.15;;;;;;;2.26;91.48;94099.66;5109021;28;20043;-68
2020/12/13 06:39:01;;;;;;;27.48;14.25;;;;;;;2.31;92.39;94122.22;5109065;27;20049;-68
2020/12/13 06:41:30;;;;;;;27.55;15.30;;;;;;;2.36;92.43;94140.41;5109179;28;20925;-68
2020/12/13 06:44:07;;;;;;;32.85;16.58;;;;;;;2.29;93.33;94137.03;5108129;28;20044;-69
2020/12/13 06:46:41;;;;;;;43.42;23.42;;;;;;;2.35;93.47;94149.09;5108979;28;20066;-69
2020/12/13 06:49:12;;;;;;;55.10;25.17;;;;;;;2.21;95.02;94137.22;5107765;28;20039;-69
2020/12/13 06:51:47;;;;;;;59.88;31.02;;;;;;;2.17;96.19;94147.09;5107369;28;20046;-69
2020/12/13 06:54:15;;;;;;;66.20;34.80;;;;;;;2.14;97.95;94149.25;5107327;28;20535;-69
2020/12/13 06:56:42;;;;;;;87.38;40.47;;;;;;;2.16;98.42;94149.84;5107344;28;20054;-69
2020/12/13 06:59:10;;;;;;;69.60;37.85;;;;;;;2.13;98.70;94155.41;5107290;28;20436;-70
2020/12/13 07:01:39;;;;;;;143.88;52.97;;;;;;;2.19;98.57;94154.59;5106495;28;20050;-69
2020/12/13 07:04:21;;;;;;;128.95;58.78;;;;;;;2.09;100.00;94166.06;5108342;28;20040;-69
2020/12/13 07:06:55;;;;;;;172.43;80.40;;;;;;;2.01;100.00;94163.66;5108410;28;20043;-68
2020/12/13 07:09:22;;;;;;;93.75;52.60;;;;;;;1.99;100.00;94170.75;5107229;28;20043;-69
2020/12/13 07:11:50;;;;;;;80.93;45.70;;;;;;;1.97;100.00;94172.72;5108844;28;20039;-69
2020/12/13 07:14:17;;;;;;;70.70;42.50;;;;;;;2.06;100.00;94170.78;5106778;28;20044;-68
2020/12/13 07:16:49;;;;;;;84.63;47.80;;;;;;;2.22;100.00;94170.41;5108286;28;20122;-69
2020/12/13 07:19:17;;;;;;;81.95;42.10;;;;;;;2.42;100.00;94174.81;5107429;28;20515;-68
2020/12/13 07:21:44;;;;;;;69.90;37.20;;;;;;;2.54;100.00;94175.00;5106826;28;20035;-69
2020/12/13 07:24:11;;;;;;;64.90;35.80;;;;;;;2.56;99.69;94176.41;5106724;28;20058;-69
2020/12/13 07:26:39;;;;;;;49.67;29.83;;;;;;;2.41;100.00;94174.03;5105786;28;20054;-68
2020/12/13 07:29:14;;;;;;;45.08;29.38;;;;;;;2.22;100.00;94169.63;5107245;28;20040;-69
2020/12/13 07:31:46;;;;;;;51.05;30.65;;;;;;;2.15;100.00;94179.09;5107078;28;20475;-69
2020/12/13 07:34:13;;;;;;;42.45;23.17;;;;;;;2.00;100.00;94181.81;5106950;28;20047;-69
2020/12/13 07:36:40;;;;;;;78.53;47.55;;;;;;;2.02;100.00;94185.00;5107532;28;20043;-69
2020/12/13 07:39:11;;;;;;;81.85;45.17;;;;;;;2.00;100.00;94192.91;5107257;28;20043;-68
2020/12/13 07:41:37;;;;;;;53.85;32.10;;;;;;;2.12;100.00;94205.97;5107349;28;20034;-69
2020/12/13 07:44:14;;;;;;;90.55;48.00;;;;;;;2.27;100.00;94205.81;5106607;28;20421;-69
2020/12/13 07:46:42;;;;;;;83.15;39.72;;;;;;;2.34;100.00;94209.19;5106621;28;20420;-69
2020/12/13 07:49:10;;;;;;;82.32;39.35;;;;;;;2.41;100.00;94220.28;5106052;28;20535;-69
2020/12/13 07:51:39;;;;;;;79.45;45.53;;;;;;;2.55;100.00;94220.28;5107112;28;20040;-69
2020/12/13 07:54:23;;;;;;;93.70;47.80;;;;;;;2.71;100.00;94219.91;5106710;28;20051;-69
2020/12/13 07:56:54;;;;;;;125.80;72.03;;;;;;;2.78;100.00;94220.72;5106995;28;20035;-69
2020/12/13 07:59:22;;;;;;;69.70;30.80;;;;;;;2.81;100.00;94220.31;5106435;27;20032;-69
2020/12/13 08:01:51;;;;;;;58.88;30.45;;;;;;;3.00;100.00;94233.38;5105235;28;20035;-69
2020/12/13 08:04:37;;;;;;;29.27;18.50;;;;;;;3.16;100.00;94232.97;5106806;28;20046;-69
2020/12/13 08:07:05;;;;;;;26.20;15.63;;;;;;;3.38;100.00;94219.88;5107025;28;20039;-69
2020/12/13 08:09:32;;;;;;;31.85;19.77;;;;;;;3.55;100.00;94210.75;5107099;28;20040;-69
2020/12/13 08:11:58;;;;;;;32.05;20.95;;;;;;;3.67;100.00;94215.25;5107937;28;20043;-70
2020/12/13 08:14:26;;;;;;;48.72;30.70;;;;;;;3.94;99.54;94208.22;5107123;28;20039;-69
2020/12/13 08:16:55;;;;;;;434.33;248.35;;;;;;;4.14;98.48;94213.28;5106454;28;20533;-67
2020/12/13 08:19:28;;;;;;;115.07;71.63;;;;;;;4.43;97.44;94203.41;5107252;28;20035;-67
2020/12/13 08:21:57;;;;;;;125.85;72.78;;;;;;;4.79;95.58;94219.06;5106582;28;20051;-68
2020/12/13 08:24:24;;;;;;;36.83;23.75;;;;;;;5.11;91.61;94213.88;5105851;28;20110;-68
2020/12/13 08:26:53;;;;;;;32.25;20.17;;;;;;;5.50;91.22;94205.94;5106732;28;20412;-69
2020/12/13 08:29:21;;;;;;;29.23;18.10;;;;;;;5.71;91.34;94208.13;5103987;28;20035;-68
2020/12/13 08:31:49;;;;;;;29.65;16.88;;;;;;;5.96;90.53;94203.88;5105938;28;20047;-68
2020/12/13 08:34:23;;;;;;;27.73;16.33;;;;;;;6.16;89.36;94204.44;5106798;28;20089;-69
2020/12/13 08:36:54;;;;;;;23.33;13.70;;;;;;;6.38;87.35;94214.31;5106686;28;20043;-68
2020/12/13 08:39:31;;;;;;;22.10;14.27;;;;;;;6.20;86.26;94204.81;5107080;28;20520;-69
2020/12/13 08:41:59;;;;;;;24.35;16.13;;;;;;;6.17;85.01;94216.34;5106177;28;20607;-70
2020/12/13 08:44:30;;;;;;;23.88;14.93;;;;;;;6.51;85.13;94221.91;5106955;28;20035;-69
2020/12/13 08:46:59;;;;;;;24.60;15.77;;;;;;;6.77;84.60;94219.94;5105563;28;20044;-70
2020/12/13 08:49:33;;;;;;;31.23;19.70;;;;;;;6.91;84.49;94218.72;5106572;28;20036;-71
2020/12/13 08:52:19;;;;;;;29.15;18.25;;;;;;;7.04;83.61;94221.13;5106180;28;20044;-70
2020/12/13 08:55:06;;;;;;;31.35;18.52;;;;;;;7.00;83.27;94204.44;5107934;28;20031;-69
2020/12/13 08:57:35;;;;;;;23.75;14.95;;;;;;;7.24;82.91;94217.44;5109673;28;20044;-70
2020/12/13 09:00:11;;;;;;;23.95;15.93;;;;;;;7.23;82.54;94228.78;5107898;28;20038;-69
2020/12/13 09:03:00;;;;;;;23.60;15.35;;;;;;;7.28;82.16;94227.09;5107745;28;20043;-68
2020/12/13 09:05:32;;;;;;;44.50;21.42;;;;;;;7.23;83.32;94236.56;5109370;28;20100;-69
2020/12/13 09:07:59;;;;;;;31.63;18.88;;;;;;;7.10;82.75;94229.78;5109413;28;21999;-68
2020/12/13 09:10:28;;;;;;;27.15;17.77;;;;;;;6.98;83.00;94237.53;5109445;28;20035;-69
2020/12/13 09:12:54;;;;;;;27.05;17.48;;;;;;;6.73;83.46;94221.41;5108492;28;20528;-70
2020/12/13 09:15:22;;;;;;;27.00;18.15;;;;;;;6.58;84.08;94206.28;5108820;28;20544;-72
2020/12/13 09:17:56;;;;;;;33.95;21.60;;;;;;;6.47;85.29;94225.94;5109996;28;20036;-71
2020/12/13 09:20:24;;;;;;;29.23;18.58;;;;;;;6.49;85.75;94223.91;5109198;28;20031;-71
2020/12/13 09:23:12;;;;;;;26.30;16.65;;;;;;;6.57;85.22;94221.03;5109527;28;20031;-71
2020/12/13 09:25:43;;;;;;;31.45;20.10;;;;;;;6.51;84.93;94234.81;5091080;28;20051;-70
2020/12/13 09:28:12;;;;;;;32.47;20.95;;;;;;;6.53;85.36;94230.22;5109957;28;20047;-69
2020/12/13 09:30:39;;;;;;;32.65;21.50;;;;;;;6.61;85.16;94227.34;5108886;28;20039;-71
2020/12/13 09:33:06;;;;;;;24.55;17.27;;;;;;;6.62;84.79;94228.91;5108120;28;20040;-71
2020/12/13 09:35:33;;;;;;;32.45;21.30;;;;;;;6.54;84.99;94225.84;5109307;28;20486;-71
2020/12/13 09:38:00;;;;;;;42.58;26.33;;;;;;;6.58;83.84;94232.94;5109165;28;20042;-71
2020/12/13 09:40:27;;;;;;;26.88;18.02;;;;;;;6.65;83.93;94223.28;5109268;28;20085;-71
2020/12/13 09:42:54;;;;;;;21.30;14.50;;;;;;;6.59;84.76;94219.00;5109346;28;20047;-71
2020/12/13 09:45:22;;;;;;;74.65;37.42;;;;;;;6.53;83.91;94222.47;5109455;28;20074;-71
2020/12/13 09:47:49;;;;;;;34.00;21.00;;;;;;;6.56;84.07;94229.78;5109023;28;20043;-71
2020/12/13 09:50:18;;;;;;;29.08;17.75;;;;;;;6.44;84.15;94205.66;5106007;28;20089;-71
2020/12/13 09:52:44;;;;;;;31.52;20.73;;;;;;;6.62;84.49;94222.94;5102897;28;20058;-71
2020/12/13 09:55:11;;;;;;;30.88;19.45;;;;;;;6.59;84.68;94213.84;5107410;28;20048;-71
2020/12/13 09:57:37;;;;;;;39.20;23.95;;;;;;;6.61;85.63;94216.97;5108716;28;20044;-71
2020/12/13 10:00:05;;;;;;;31.95;19.95;;;;;;;6.47;84.83;94215.59;5107525;28;20047;-71
2020/12/13 10:02:38;;;;;;;35.97;23.67;;;;;;;6.55;85.59;94215.25;5107916;28;20107;-71
2020/12/13 10:05:08;;;;;;;45.45;28.75;;;;;;;6.59;85.39;94208.66;5088554;28;20523;-71
2020/12/13 10:10:14;;;;;;;46.08;29.48;;;;;;;6.60;85.44;94199.88;5108153;28;20047;-71
2020/12/13 10:12:41;;;;;;;44.33;29.50;;;;;;;6.68;85.22;94189.22;5104974;28;20428;-71
2020/12/13 10:15:10;;;;;;;42.33;27.05;;;;;;;6.93;84.73;94183.03;5107851;28;20051;-70
2020/12/13 10:17:40;;;;;;;37.55;23.50;;;;;;;6.96;84.34;94174.84;5106612;28;20089;-71
2020/12/13 10:20:06;;;;;;;34.33;21.92;;;;;;;7.13;83.82;94192.28;5107093;28;20039;-71
2020/12/13 10:22:33;;;;;;;36.30;22.65;;;;;;;7.29;83.48;94194.22;5107165;28;20485;-70
2020/12/13 10:24:59;;;;;;;39.33;21.55;;;;;;;7.29;83.41;94186.44;5108915;28;21302;-69
2020/12/13 10:27:25;;;;;;;27.63;17.17;;;;;;;7.32;81.05;94191.19;5106658;28;20087;-71
2020/12/13 10:29:52;;;;;;;28.73;18.50;;;;;;;7.54;80.71;94193.97;5107059;28;20043;-70
2020/12/13 10:32:18;;;;;;;28.75;18.48;;;;;;;7.80;81.42;94192.72;5106967;28;20067;-70
2020/12/13 10:34:45;;;;;;;26.63;15.75;;;;;;;8.08;78.94;94178.19;5106177;28;20801;-70
2020/12/13 10:37:11;;;;;;;35.75;20.63;;;;;;;8.44;78.78;94183.28;5105403;28;20044;-70
2020/12/13 10:39:38;;;;;;;29.45;18.00;;;;;;;8.83;76.93;94183.41;5106852;28;20034;-71
2020/12/13 10:42:06;;;;;;;40.53;23.52;;;;;;;8.99;75.43;94182.63;5105769;28;20718;-72
2020/12/13 10:44:33;;;;;;;26.67;17.40;;;;;;;9.16;75.83;94182.63;5105798;27;20085;-71
2020/12/13 10:47:00;;;;;;;33.28;19.73;;;;;;;9.43;75.15;94179.38;5105907;28;20039;-71
2020/12/13 10:49:27;;;;;;;33.50;20.52;;;;;;;9.55;73.78;94165.22;5105452;28;20118;-69
2020/12/13 10:51:53;;;;;;;38.88;23.38;;;;;;;9.59;73.24;94170.75;5105583;28;20504;-71
2020/12/13 10:54:19;;;;;;;38.33;24.45;;;;;;;9.77;73.29;94172.25;5107950;28;20079;-70
2020/12/13 10:56:46;;;;;;;48.00;25.75;;;;;;;9.91;71.17;94178.69;5107487;28;20044;-70
2020/12/13 10:59:12;;;;;;;34.78;21.95;;;;;;;9.86;70.88;94185.63;5107879;28;20039;-70
2020/12/13 11:01:39;;;;;;;34.85;22.05;;;;;;;9.72;72.44;94186.00;5105878;28;20044;-69
2020/12/13 11:04:06;;;;;;;162.10;56.90;;;;;;;9.48;72.88;94185.41;5106594;28;20560;-70
2020/12/13 11:06:32;;;;;;;59.30;29.48;;;;;;;9.44;72.63;94188.75;5107050;28;20396;-71
2020/12/13 11:09:01;;;;;;;38.30;24.73;;;;;;;9.37;73.17;94194.09;5108118;28;20047;-69
2020/12/13 11:11:28;;;;;;;40.28;24.20;;;;;;;9.10;73.84;94193.97;5088954;28;20899;-70
2020/12/13 11:13:54;;;;;;;36.42;24.08;;;;;;;9.00;74.25;94199.78;5106003;28;20504;-71
2020/12/13 11:16:20;;;;;;;43.15;24.80;;;;;;;8.83;75.19;94194.59;5105903;28;20058;-71
2020/12/13 11:18:47;;;;;;;33.22;22.25;;;;;;;8.83;75.17;94184.19;5105494;28;20058;-71
2020/12/13 11:21:13;;;;;;;35.20;22.23;;;;;;;8.78;75.47;94187.50;5105368;28;20036;-71
2020/12/13 11:23:40;;;;;;;30.92;20.08;;;;;;;8.64;75.96;94190.63;5103600;28;20090;-71
2020/12/13 11:26:07;;;;;;;53.95;26.65;;;;;;;8.50;77.04;94185.75;5105181;28;20035;-72
2020/12/13 11:28:33;;;;;;;149.77;55.58;;;;;;;8.38;76.31;94164.22;5104196;28;20050;-72
2020/12/13 11:31:00;;;;;;;58.70;29.73;;;;;;;8.68;76.16;94192.53;5104325;28;20043;-70
2020/12/13 11:33:26;;;;;;;49.10;26.58;;;;;;;8.77;76.56;94179.97;5108091;28;20039;-70
2020/12/13 11:35:53;;;;;;;56.58;31.02;;;;;;;8.82;77.07;94180.00;5106666;28;20028;-71
2020/12/13 11:38:19;;;;;;;38.38;24.42;;;;;;;8.56;77.47;94169.22;5107637;28;20046;-70
2020/12/13 11:40:45;;;;;;;38.40;23.40;;;;;;;8.56;77.67;94158.84;5106552;28;20043;-71